sensor_id;sensor_type;location;lat;lon;timestamp;P1;durP1;ratioP1;P2;durP2;ratioP2
64498;SDS011;51087;55.718;21.122;2022-07-01T00:00:27;6.47;;;2.58;;
64498;SDS011;51087;55.718;21.122;2022-07-01T00:02:52;5.72;;;2.90;;
64498;SDS011;51087;55.718;21.122;2022-07-01T00:05:18;4.68;;;2.70;;
64498;SDS011;51087;55.718;21.122;2022-07-01T00:07:43;4.18;;;2.58;;
64498;SDS011;51087;55.718;21.122;2022-07-01T00:10:09;4.72;;;2.70;;
64498;SDS011;51087;55.718;21.122;2022-07-01T00:12:35;3.75;;;2.70;;
64498;SDS011;51087;55.718;21.122;2022-07-01T00:15:00;4.22;;;2.70;;
64498;SDS011;51087;55.718;21.122;2022-07-01T00:17:25;4.45;;;2.58;;
64498;SDS011;51087;55.718;21.122;2022-07-01T00:19:51;3.75;;;2.55;;
64498;SDS011;51087;55.718;21.122;2022-07-01T00:22:16;4.32;;;2.50;;
64498;SDS011;51087;55.718;21.122;2022-07-01T00:24:42;4.20;;;2.50;;
64498;SDS011;51087;55.718;21.122;2022-07-01T00:27:08;4.75;;;2.42;;
64498;SDS011;51087;55.718;21.122;2022-07-01T00:29:33;4.32;;;2.70;;
64498;SDS011;51087;55.718;21.122;2022-07-01T00:31:59;4.10;;;2.67;;
64498;SDS011;51087;55.718;21.122;2022-07-01T00:34:24;3.90;;;2.50;;
64498;SDS011;51087;55.718;21.122;2022-07-01T00:36:50;4.88;;;2.72;;
64498;SDS011;51087;55.718;21.122;2022-07-01T00:39:15;3.97;;;2.40;;
64498;SDS011;51087;55.718;21.122;2022-07-01T00:41:41;4.03;;;2.38;;
64498;SDS011;51087;55.718;21.122;2022-07-01T00:44:15;5.07;;;2.30;;
64498;SDS011;51087;55.718;21.122;2022-07-01T00:46:44;3.70;;;2.53;;
64498;SDS011;51087;55.718;21.122;2022-07-01T00:49:10;4.20;;;2.53;;
64498;SDS011;51087;55.718;21.122;2022-07-01T00:51:36;4.13;;;2.70;;
64498;SDS011;51087;55.718;21.122;2022-07-01T00:54:02;5.85;;;2.70;;
64498;SDS011;51087;55.718;21.122;2022-07-01T00:56:27;3.58;;;2.33;;
64498;SDS011;51087;55.718;21.122;2022-07-01T00:58:54;3.53;;;2.63;;
64498;SDS011;51087;55.718;21.122;2022-07-01T01:01:20;5.53;;;2.55;;
64498;SDS011;51087;55.718;21.122;2022-07-01T01:03:47;3.65;;;2.33;;
64498;SDS011;51087;55.718;21.122;2022-07-01T01:06:12;4.18;;;2.70;;
64498;SDS011;51087;55.718;21.122;2022-07-01T01:08:38;5.50;;;2.65;;
64498;SDS011;51087;55.718;21.122;2022-07-01T01:11:04;4.18;;;2.58;;
64498;SDS011;51087;55.718;21.122;2022-07-01T01:13:30;6.60;;;3.10;;
64498;SDS011;51087;55.718;21.122;2022-07-01T01:15:55;5.07;;;2.75;;
64498;SDS011;51087;55.718;21.122;2022-07-01T01:18:21;6.78;;;2.80;;
64498;SDS011;51087;55.718;21.122;2022-07-01T01:20:46;3.70;;;2.55;;
64498;SDS011;51087;55.718;21.122;2022-07-01T01:23:12;3.03;;;2.45;;
64498;SDS011;51087;55.718;21.122;2022-07-01T01:25:37;4.45;;;2.40;;
64498;SDS011;51087;55.718;21.122;2022-07-01T01:28:03;4.38;;;2.67;;
64498;SDS011;51087;55.718;21.122;2022-07-01T01:30:29;3.65;;;2.40;;
64498;SDS011;51087;55.718;21.122;2022-07-01T01:32:55;3.15;;;2.50;;
64498;SDS011;51087;55.718;21.122;2022-07-01T01:35:21;5.72;;;2.85;;
64498;SDS011;51087;55.718;21.122;2022-07-01T01:37:47;2.60;;;2.30;;
64498;SDS011;51087;55.718;21.122;2022-07-01T01:40:13;3.47;;;2.53;;
64498;SDS011;51087;55.718;21.122;2022-07-01T01:42:40;3.88;;;2.80;;
64498;SDS011;51087;55.718;21.122;2022-07-01T01:45:06;3.88;;;2.70;;
64498;SDS011;51087;55.718;21.122;2022-07-01T01:47:32;4.50;;;2.47;;
64498;SDS011;51087;55.718;21.122;2022-07-01T01:49:57;4.43;;;2.60;;
64498;SDS011;51087;55.718;21.122;2022-07-01T01:52:23;3.72;;;2.58;;
64498;SDS011;51087;55.718;21.122;2022-07-01T01:54:49;3.35;;;2.35;;
64498;SDS011;51087;55.718;21.122;2022-07-01T01:57:14;4.72;;;2.20;;
64498;SDS011;51087;55.718;21.122;2022-07-01T01:59:40;3.20;;;2.20;;
64498;SDS011;51087;55.718;21.122;2022-07-01T02:02:05;4.25;;;2.47;;
64498;SDS011;51087;55.718;21.122;2022-07-01T02:04:31;4.85;;;2.38;;
64498;SDS011;51087;55.718;21.122;2022-07-01T02:06:57;4.35;;;2.50;;
64498;SDS011;51087;55.718;21.122;2022-07-01T02:09:22;3.00;;;2.22;;
64498;SDS011;51087;55.718;21.122;2022-07-01T02:11:49;4.03;;;2.35;;
64498;SDS011;51087;55.718;21.122;2022-07-01T02:14:14;4.43;;;2.40;;
64498;SDS011;51087;55.718;21.122;2022-07-01T02:16:39;3.80;;;2.35;;
64498;SDS011;51087;55.718;21.122;2022-07-01T02:19:05;2.85;;;2.22;;
64498;SDS011;51087;55.718;21.122;2022-07-01T02:21:30;3.63;;;2.28;;
64498;SDS011;51087;55.718;21.122;2022-07-01T02:23:56;4.95;;;2.28;;
64498;SDS011;51087;55.718;21.122;2022-07-01T02:26:21;4.10;;;2.30;;
64498;SDS011;51087;55.718;21.122;2022-07-01T02:28:46;3.45;;;2.13;;
64498;SDS011;51087;55.718;21.122;2022-07-01T02:31:12;2.92;;;2.15;;
64498;SDS011;51087;55.718;21.122;2022-07-01T02:33:38;2.55;;;2.15;;
64498;SDS011;51087;55.718;21.122;2022-07-01T02:36:03;4.70;;;2.30;;
64498;SDS011;51087;55.718;21.122;2022-07-01T02:38:29;3.55;;;2.15;;
64498;SDS011;51087;55.718;21.122;2022-07-01T02:40:54;2.85;;;2.13;;
64498;SDS011;51087;55.718;21.122;2022-07-01T02:43:20;4.50;;;2.22;;
64498;SDS011;51087;55.718;21.122;2022-07-01T02:45:45;3.05;;;2.05;;
64498;SDS011;51087;55.718;21.122;2022-07-01T02:48:11;4.85;;;2.03;;
64498;SDS011;51087;55.718;21.122;2022-07-01T02:50:36;2.75;;;2.22;;
64498;SDS011;51087;55.718;21.122;2022-07-01T02:53:02;2.85;;;2.00;;
64498;SDS011;51087;55.718;21.122;2022-07-01T02:55:28;3.22;;;2.10;;
64498;SDS011;51087;55.718;21.122;2022-07-01T02:57:54;4.38;;;2.00;;
64498;SDS011;51087;55.718;21.122;2022-07-01T03:00:20;2.60;;;2.13;;
64498;SDS011;51087;55.718;21.122;2022-07-01T03:02:47;3.05;;;2.10;;
64498;SDS011;51087;55.718;21.122;2022-07-01T03:05:13;2.72;;;1.90;;
64498;SDS011;51087;55.718;21.122;2022-07-01T03:07:38;3.83;;;2.20;;
64498;SDS011;51087;55.718;21.122;2022-07-01T03:10:05;2.10;;;1.90;;
64498;SDS011;51087;55.718;21.122;2022-07-01T03:12:31;2.20;;;1.95;;
64498;SDS011;51087;55.718;21.122;2022-07-01T03:15:03;4.38;;;2.13;;
64498;SDS011;51087;55.718;21.122;2022-07-01T03:17:30;4.35;;;2.17;;
64498;SDS011;51087;55.718;21.122;2022-07-01T03:19:57;2.95;;;1.90;;
64498;SDS011;51087;55.718;21.122;2022-07-01T03:22:24;3.85;;;2.17;;
64498;SDS011;51087;55.718;21.122;2022-07-01T03:24:51;2.80;;;2.20;;
64498;SDS011;51087;55.718;21.122;2022-07-01T03:27:17;3.05;;;2.10;;
64498;SDS011;51087;55.718;21.122;2022-07-01T03:29:43;2.72;;;2.05;;
64498;SDS011;51087;55.718;21.122;2022-07-01T03:32:09;2.65;;;2.00;;
64498;SDS011;51087;55.718;21.122;2022-07-01T03:34:39;2.60;;;2.00;;
64498;SDS011;51087;55.718;21.122;2022-07-01T03:37:06;2.47;;;1.90;;
64498;SDS011;51087;55.718;21.122;2022-07-01T03:39:33;2.67;;;1.90;;
64498;SDS011;51087;55.718;21.122;2022-07-01T03:41:59;3.70;;;2.03;;
64498;SDS011;51087;55.718;21.122;2022-07-01T03:44:24;2.38;;;1.80;;
64498;SDS011;51087;55.718;21.122;2022-07-01T03:46:50;2.60;;;2.00;;
64498;SDS011;51087;55.718;21.122;2022-07-01T03:49:15;3.22;;;2.17;;
64498;SDS011;51087;55.718;21.122;2022-07-01T03:51:41;2.22;;;1.90;;
64498;SDS011;51087;55.718;21.122;2022-07-01T03:54:06;2.75;;;1.92;;
64498;SDS011;51087;55.718;21.122;2022-07-01T03:56:50;2.88;;;2.05;;
64498;SDS011;51087;55.718;21.122;2022-07-01T03:59:16;3.45;;;2.10;;
64498;SDS011;51087;55.718;21.122;2022-07-01T04:01:41;3.58;;;2.10;;
64498;SDS011;51087;55.718;21.122;2022-07-01T04:04:07;3.10;;;1.83;;
64498;SDS011;51087;55.718;21.122;2022-07-01T04:06:32;3.70;;;1.90;;
64498;SDS011;51087;55.718;21.122;2022-07-01T04:08:58;3.00;;;2.25;;
64498;SDS011;51087;55.718;21.122;2022-07-01T04:11:24;2.92;;;2.20;;
64498;SDS011;51087;55.718;21.122;2022-07-01T04:13:49;3.13;;;1.98;;
64498;SDS011;51087;55.718;21.122;2022-07-01T04:16:18;3.50;;;2.00;;
64498;SDS011;51087;55.718;21.122;2022-07-01T04:18:48;3.85;;;2.40;;
64498;SDS011;51087;55.718;21.122;2022-07-01T04:21:14;3.50;;;2.22;;
64498;SDS011;51087;55.718;21.122;2022-07-01T04:23:58;3.88;;;2.15;;
64498;SDS011;51087;55.718;21.122;2022-07-01T04:26:23;2.47;;;2.00;;
64498;SDS011;51087;55.718;21.122;2022-07-01T04:28:52;3.60;;;2.30;;
64498;SDS011;51087;55.718;21.122;2022-07-01T04:31:19;2.63;;;2.30;;
64498;SDS011;51087;55.718;21.122;2022-07-01T04:33:45;3.13;;;2.10;;
64498;SDS011;51087;55.718;21.122;2022-07-01T04:36:11;3.08;;;2.10;;
64498;SDS011;51087;55.718;21.122;2022-07-01T04:38:37;2.33;;;2.05;;
64498;SDS011;51087;55.718;21.122;2022-07-01T04:41:03;2.95;;;2.00;;
64498;SDS011;51087;55.718;21.122;2022-07-01T04:43:47;3.83;;;2.30;;
64498;SDS011;51087;55.718;21.122;2022-07-01T04:46:12;2.63;;;2.10;;
64498;SDS011;51087;55.718;21.122;2022-07-01T04:48:38;5.07;;;1.88;;
64498;SDS011;51087;55.718;21.122;2022-07-01T04:51:05;3.00;;;2.20;;
64498;SDS011;51087;55.718;21.122;2022-07-01T04:53:30;2.78;;;2.25;;
64498;SDS011;51087;55.718;21.122;2022-07-01T04:55:56;2.30;;;1.83;;
64498;SDS011;51087;55.718;21.122;2022-07-01T04:58:21;2.78;;;2.20;;
64498;SDS011;51087;55.718;21.122;2022-07-01T05:00:46;2.83;;;2.35;;
64498;SDS011;51087;55.718;21.122;2022-07-01T05:03:13;3.08;;;2.28;;
64498;SDS011;51087;55.718;21.122;2022-07-01T05:05:39;3.10;;;2.47;;
64498;SDS011;51087;55.718;21.122;2022-07-01T05:08:05;3.80;;;2.40;;
64498;SDS011;51087;55.718;21.122;2022-07-01T05:10:30;3.38;;;2.78;;
64498;SDS011;51087;55.718;21.122;2022-07-01T05:12:56;3.53;;;2.67;;
64498;SDS011;51087;55.718;21.122;2022-07-01T05:15:21;3.75;;;2.60;;
64498;SDS011;51087;55.718;21.122;2022-07-01T05:17:46;3.45;;;2.67;;
64498;SDS011;51087;55.718;21.122;2022-07-01T05:23:14;4.20;;;3.08;;
64498;SDS011;51087;55.718;21.122;2022-07-01T05:25:40;3.95;;;3.00;;
64498;SDS011;51087;55.718;21.122;2022-07-01T05:28:05;4.95;;;3.40;;
64498;SDS011;51087;55.718;21.122;2022-07-01T05:30:30;5.75;;;3.25;;
64498;SDS011;51087;55.718;21.122;2022-07-01T05:32:56;4.45;;;3.53;;
64498;SDS011;51087;55.718;21.122;2022-07-01T05:35:21;6.00;;;3.50;;
64498;SDS011;51087;55.718;21.122;2022-07-01T05:37:47;4.57;;;3.05;;
64498;SDS011;51087;55.718;21.122;2022-07-01T05:40:12;5.05;;;3.50;;
64498;SDS011;51087;55.718;21.122;2022-07-01T05:42:37;5.38;;;3.38;;
64498;SDS011;51087;55.718;21.122;2022-07-01T05:45:03;4.85;;;3.70;;
64498;SDS011;51087;55.718;21.122;2022-07-01T05:47:29;4.78;;;3.33;;
64498;SDS011;51087;55.718;21.122;2022-07-01T05:49:54;4.60;;;3.58;;
64498;SDS011;51087;55.718;21.122;2022-07-01T05:52:20;6.45;;;3.85;;
64498;SDS011;51087;55.718;21.122;2022-07-01T05:54:45;4.70;;;3.53;;
64498;SDS011;51087;55.718;21.122;2022-07-01T05:57:11;5.25;;;3.90;;
64498;SDS011;51087;55.718;21.122;2022-07-01T05:59:36;5.78;;;3.78;;
64498;SDS011;51087;55.718;21.122;2022-07-01T06:02:02;5.70;;;4.15;;
64498;SDS011;51087;55.718;21.122;2022-07-01T06:04:28;5.60;;;3.95;;
64498;SDS011;51087;55.718;21.122;2022-07-01T06:06:53;5.18;;;4.10;;
64498;SDS011;51087;55.718;21.122;2022-07-01T06:09:19;4.63;;;3.90;;
64498;SDS011;51087;55.718;21.122;2022-07-01T06:11:44;5.38;;;4.00;;
64498;SDS011;51087;55.718;21.122;2022-07-01T06:14:11;5.35;;;3.90;;
64498;SDS011;51087;55.718;21.122;2022-07-01T06:16:36;5.25;;;4.05;;
64498;SDS011;51087;55.718;21.122;2022-07-01T06:19:03;7.18;;;4.13;;
64498;SDS011;51087;55.718;21.122;2022-07-01T06:21:29;6.57;;;4.43;;
64498;SDS011;51087;55.718;21.122;2022-07-01T06:23:54;5.10;;;3.97;;
64498;SDS011;51087;55.718;21.122;2022-07-01T06:26:20;7.63;;;4.00;;
64498;SDS011;51087;55.718;21.122;2022-07-01T06:28:45;5.95;;;3.95;;
64498;SDS011;51087;55.718;21.122;2022-07-01T06:31:11;6.30;;;4.28;;
64498;SDS011;51087;55.718;21.122;2022-07-01T06:33:36;5.45;;;4.60;;
64498;SDS011;51087;55.718;21.122;2022-07-01T06:36:01;6.35;;;4.20;;
64498;SDS011;51087;55.718;21.122;2022-07-01T06:38:28;5.55;;;4.20;;
64498;SDS011;51087;55.718;21.122;2022-07-01T06:40:54;6.90;;;4.28;;
64498;SDS011;51087;55.718;21.122;2022-07-01T06:43:38;6.00;;;3.80;;
64498;SDS011;51087;55.718;21.122;2022-07-01T06:46:04;5.63;;;3.80;;
64498;SDS011;51087;55.718;21.122;2022-07-01T06:48:29;5.07;;;3.67;;
64498;SDS011;51087;55.718;21.122;2022-07-01T06:50:55;5.65;;;3.88;;
64498;SDS011;51087;55.718;21.122;2022-07-01T06:53:20;5.15;;;3.78;;
64498;SDS011;51087;55.718;21.122;2022-07-01T06:55:45;6.85;;;3.70;;
64498;SDS011;51087;55.718;21.122;2022-07-01T06:58:11;6.38;;;4.07;;
64498;SDS011;51087;55.718;21.122;2022-07-01T07:00:36;6.13;;;3.90;;
64498;SDS011;51087;55.718;21.122;2022-07-01T07:03:02;5.30;;;3.58;;
64498;SDS011;51087;55.718;21.122;2022-07-01T07:05:28;5.13;;;3.50;;
64498;SDS011;51087;55.718;21.122;2022-07-01T07:07:57;7.80;;;3.83;;
64498;SDS011;51087;55.718;21.122;2022-07-01T07:10:23;5.43;;;4.00;;
64498;SDS011;51087;55.718;21.122;2022-07-01T07:12:49;5.43;;;3.85;;
64498;SDS011;51087;55.718;21.122;2022-07-01T07:15:15;6.38;;;3.90;;
64498;SDS011;51087;55.718;21.122;2022-07-01T07:17:41;6.97;;;4.32;;
64498;SDS011;51087;55.718;21.122;2022-07-01T07:20:06;5.00;;;4.13;;
64498;SDS011;51087;55.718;21.122;2022-07-01T07:22:32;6.88;;;4.95;;
64498;SDS011;51087;55.718;21.122;2022-07-01T07:24:58;9.27;;;5.72;;
64498;SDS011;51087;55.718;21.122;2022-07-01T07:27:23;7.10;;;5.60;;
64498;SDS011;51087;55.718;21.122;2022-07-01T07:29:49;8.95;;;6.00;;
64498;SDS011;51087;55.718;21.122;2022-07-01T07:32:14;7.32;;;5.20;;
64498;SDS011;51087;55.718;21.122;2022-07-01T07:34:39;6.80;;;4.93;;
64498;SDS011;51087;55.718;21.122;2022-07-01T07:37:05;7.28;;;5.13;;
64498;SDS011;51087;55.718;21.122;2022-07-01T07:39:31;7.45;;;5.38;;
64498;SDS011;51087;55.718;21.122;2022-07-01T07:41:57;6.72;;;4.63;;
64498;SDS011;51087;55.718;21.122;2022-07-01T07:44:22;6.32;;;4.97;;
64498;SDS011;51087;55.718;21.122;2022-07-01T07:46:49;7.28;;;5.82;;
64498;SDS011;51087;55.718;21.122;2022-07-01T07:49:14;9.68;;;6.25;;
64498;SDS011;51087;55.718;21.122;2022-07-01T07:51:40;7.25;;;5.53;;
64498;SDS011;51087;55.718;21.122;2022-07-01T07:54:05;13.32;;;9.05;;
64498;SDS011;51087;55.718;21.122;2022-07-01T07:56:30;13.88;;;9.93;;
64498;SDS011;51087;55.718;21.122;2022-07-01T07:58:56;11.73;;;8.30;;
64498;SDS011;51087;55.718;21.122;2022-07-01T08:01:22;22.95;;;14.88;;
64498;SDS011;51087;55.718;21.122;2022-07-01T08:03:47;22.20;;;13.88;;
64498;SDS011;51087;55.718;21.122;2022-07-01T08:06:13;20.40;;;13.32;;
64498;SDS011;51087;55.718;21.122;2022-07-01T08:08:39;18.30;;;13.27;;
64498;SDS011;51087;55.718;21.122;2022-07-01T08:11:05;8.88;;;5.38;;
64498;SDS011;51087;55.718;21.122;2022-07-01T08:13:30;8.60;;;6.15;;
64498;SDS011;51087;55.718;21.122;2022-07-01T08:15:56;10.07;;;6.13;;
64498;SDS011;51087;55.718;21.122;2022-07-01T08:18:22;9.43;;;6.20;;
64498;SDS011;51087;55.718;21.122;2022-07-01T08:20:47;8.85;;;6.25;;
64498;SDS011;51087;55.718;21.122;2022-07-01T08:23:15;14.20;;;8.88;;
64498;SDS011;51087;55.718;21.122;2022-07-01T08:25:41;7.90;;;4.97;;
64498;SDS011;51087;55.718;21.122;2022-07-01T08:28:06;9.20;;;5.68;;
64498;SDS011;51087;55.718;21.122;2022-07-01T08:30:32;8.73;;;6.10;;
64498;SDS011;51087;55.718;21.122;2022-07-01T08:32:57;8.95;;;7.10;;
64498;SDS011;51087;55.718;21.122;2022-07-01T08:35:23;17.73;;;13.57;;
64498;SDS011;51087;55.718;21.122;2022-07-01T08:37:48;13.02;;;9.23;;
64498;SDS011;51087;55.718;21.122;2022-07-01T08:40:14;5.50;;;4.25;;
64498;SDS011;51087;55.718;21.122;2022-07-01T08:42:39;11.13;;;8.70;;
64498;SDS011;51087;55.718;21.122;2022-07-01T08:45:05;8.85;;;6.13;;
64498;SDS011;51087;55.718;21.122;2022-07-01T08:47:30;7.95;;;6.03;;
64498;SDS011;51087;55.718;21.122;2022-07-01T08:49:58;10.13;;;8.20;;
64498;SDS011;51087;55.718;21.122;2022-07-01T08:52:25;8.65;;;6.95;;
64498;SDS011;51087;55.718;21.122;2022-07-01T08:54:50;6.80;;;5.55;;
64498;SDS011;51087;55.718;21.122;2022-07-01T08:57:20;7.35;;;5.40;;
64498;SDS011;51087;55.718;21.122;2022-07-01T08:59:58;9.20;;;6.78;;
64498;SDS011;51087;55.718;21.122;2022-07-01T09:05:19;14.43;;;10.00;;
64498;SDS011;51087;55.718;21.122;2022-07-01T09:07:46;13.75;;;9.32;;
64498;SDS011;51087;55.718;21.122;2022-07-01T09:10:16;7.40;;;5.05;;
64498;SDS011;51087;55.718;21.122;2022-07-01T09:12:44;7.13;;;5.38;;
64498;SDS011;51087;55.718;21.122;2022-07-01T09:15:31;10.15;;;7.72;;
64498;SDS011;51087;55.718;21.122;2022-07-01T09:18:09;10.02;;;6.32;;
64498;SDS011;51087;55.718;21.122;2022-07-01T09:20:37;12.20;;;7.95;;
64498;SDS011;51087;55.718;21.122;2022-07-01T09:25:39;6.63;;;4.78;;
64498;SDS011;51087;55.718;21.122;2022-07-01T09:28:21;6.65;;;4.90;;
64498;SDS011;51087;55.718;21.122;2022-07-01T09:30:49;7.32;;;5.20;;
64498;SDS011;51087;55.718;21.122;2022-07-01T09:33:17;6.07;;;4.47;;
64498;SDS011;51087;55.718;21.122;2022-07-01T09:35:44;6.82;;;4.93;;
64498;SDS011;51087;55.718;21.122;2022-07-01T09:38:12;6.93;;;5.00;;
64498;SDS011;51087;55.718;21.122;2022-07-01T09:40:46;6.05;;;4.60;;
64498;SDS011;51087;55.718;21.122;2022-07-01T09:43:17;7.55;;;5.07;;
64498;SDS011;51087;55.718;21.122;2022-07-01T09:45:48;6.40;;;4.20;;
64498;SDS011;51087;55.718;21.122;2022-07-01T09:48:18;6.50;;;4.80;;
64498;SDS011;51087;55.718;21.122;2022-07-01T09:50:44;7.28;;;5.28;;
64498;SDS011;51087;55.718;21.122;2022-07-01T09:53:10;10.77;;;8.10;;
64498;SDS011;51087;55.718;21.122;2022-07-01T09:55:35;7.13;;;4.90;;
64498;SDS011;51087;55.718;21.122;2022-07-01T09:58:01;4.85;;;3.97;;
64498;SDS011;51087;55.718;21.122;2022-07-01T10:00:27;6.93;;;4.90;;
64498;SDS011;51087;55.718;21.122;2022-07-01T10:02:57;5.70;;;4.25;;
64498;SDS011;51087;55.718;21.122;2022-07-01T10:05:22;6.15;;;4.40;;
64498;SDS011;51087;55.718;21.122;2022-07-01T10:13:17;6.07;;;4.00;;
64498;SDS011;51087;55.718;21.122;2022-07-01T10:15:48;5.60;;;3.90;;
64498;SDS011;51087;55.718;21.122;2022-07-01T10:20:47;4.72;;;3.83;;
64498;SDS011;51087;55.718;21.122;2022-07-01T10:23:13;4.30;;;3.50;;
64498;SDS011;51087;55.718;21.122;2022-07-01T10:28:15;4.28;;;3.45;;
64498;SDS011;51087;55.718;21.122;2022-07-01T10:38:32;6.38;;;3.97;;
64498;SDS011;51087;55.718;21.122;2022-07-01T10:40:58;4.15;;;3.47;;
64498;SDS011;51087;55.718;21.122;2022-07-01T10:43:35;5.93;;;3.95;;
64498;SDS011;51087;55.718;21.122;2022-07-01T10:46:01;3.92;;;3.28;;
64498;SDS011;51087;55.718;21.122;2022-07-01T10:48:29;3.88;;;3.30;;
64498;SDS011;51087;55.718;21.122;2022-07-01T10:50:56;4.28;;;3.15;;
64498;SDS011;51087;55.718;21.122;2022-07-01T10:53:22;5.82;;;3.40;;
64498;SDS011;51087;55.718;21.122;2022-07-01T10:55:48;4.03;;;3.50;;
64498;SDS011;51087;55.718;21.122;2022-07-01T10:58:15;4.63;;;3.65;;
64498;SDS011;51087;55.718;21.122;2022-07-01T11:00:48;5.28;;;3.60;;
64498;SDS011;51087;55.718;21.122;2022-07-01T11:05:41;4.38;;;3.50;;
64498;SDS011;51087;55.718;21.122;2022-07-01T11:08:08;6.80;;;4.90;;
64498;SDS011;51087;55.718;21.122;2022-07-01T11:10:35;7.82;;;5.90;;
64498;SDS011;51087;55.718;21.122;2022-07-01T11:13:00;6.68;;;4.88;;
64498;SDS011;51087;55.718;21.122;2022-07-01T11:15:28;7.03;;;4.50;;
64498;SDS011;51087;55.718;21.122;2022-07-01T11:17:54;7.07;;;4.00;;
64498;SDS011;51087;55.718;21.122;2022-07-01T11:20:22;7.53;;;5.05;;
64498;SDS011;51087;55.718;21.122;2022-07-01T11:22:49;5.10;;;3.50;;
64498;SDS011;51087;55.718;21.122;2022-07-01T11:25:15;6.43;;;4.10;;
64498;SDS011;51087;55.718;21.122;2022-07-01T11:27:47;5.47;;;4.50;;
64498;SDS011;51087;55.718;21.122;2022-07-01T11:30:14;5.72;;;3.78;;
64498;SDS011;51087;55.718;21.122;2022-07-01T11:32:42;5.78;;;3.33;;
64498;SDS011;51087;55.718;21.122;2022-07-01T11:35:13;5.95;;;4.40;;
64498;SDS011;51087;55.718;21.122;2022-07-01T11:38:08;5.25;;;4.05;;
64498;SDS011;51087;55.718;21.122;2022-07-01T11:40:52;3.70;;;3.25;;
64498;SDS011;51087;55.718;21.122;2022-07-01T11:43:22;4.70;;;3.80;;
64498;SDS011;51087;55.718;21.122;2022-07-01T11:45:52;5.43;;;3.80;;
64498;SDS011;51087;55.718;21.122;2022-07-01T11:48:28;6.60;;;4.68;;
64498;SDS011;51087;55.718;21.122;2022-07-01T11:50:58;4.40;;;3.90;;
64498;SDS011;51087;55.718;21.122;2022-07-01T11:53:24;4.78;;;3.45;;
64498;SDS011;51087;55.718;21.122;2022-07-01T11:55:50;6.22;;;3.47;;
64498;SDS011;51087;55.718;21.122;2022-07-01T11:58:15;5.57;;;3.70;;
64498;SDS011;51087;55.718;21.122;2022-07-01T12:00:41;6.22;;;4.88;;
64498;SDS011;51087;55.718;21.122;2022-07-01T12:03:06;6.57;;;5.45;;
64498;SDS011;51087;55.718;21.122;2022-07-01T12:05:32;7.20;;;5.28;;
64498;SDS011;51087;55.718;21.122;2022-07-01T12:07:59;8.20;;;6.50;;
64498;SDS011;51087;55.718;21.122;2022-07-01T12:10:25;8.52;;;5.88;;
64498;SDS011;51087;55.718;21.122;2022-07-01T12:12:51;6.95;;;5.78;;
64498;SDS011;51087;55.718;21.122;2022-07-01T12:15:17;8.38;;;6.75;;
64498;SDS011;51087;55.718;21.122;2022-07-01T12:17:43;6.95;;;5.35;;
64498;SDS011;51087;55.718;21.122;2022-07-01T12:20:08;8.25;;;5.50;;
64498;SDS011;51087;55.718;21.122;2022-07-01T12:22:34;8.55;;;4.30;;
64498;SDS011;51087;55.718;21.122;2022-07-01T12:25:09;3.88;;;3.45;;
64498;SDS011;51087;55.718;21.122;2022-07-01T12:27:37;5.55;;;4.45;;
64498;SDS011;51087;55.718;21.122;2022-07-01T12:30:06;12.13;;;8.68;;
64498;SDS011;51087;55.718;21.122;2022-07-01T12:32:34;7.75;;;6.40;;
64498;SDS011;51087;55.718;21.122;2022-07-01T12:35:02;4.65;;;4.07;;
64498;SDS011;51087;55.718;21.122;2022-07-01T12:37:33;5.18;;;3.97;;
64498;SDS011;51087;55.718;21.122;2022-07-01T12:42:35;6.60;;;5.15;;
64498;SDS011;51087;55.718;21.122;2022-07-01T12:45:08;5.63;;;4.30;;
64498;SDS011;51087;55.718;21.122;2022-07-01T12:47:36;4.80;;;4.15;;
64498;SDS011;51087;55.718;21.122;2022-07-01T12:52:36;5.03;;;4.15;;
64498;SDS011;51087;55.718;21.122;2022-07-01T12:55:17;4.67;;;3.90;;
64498;SDS011;51087;55.718;21.122;2022-07-01T12:57:46;4.30;;;3.90;;
64498;SDS011;51087;55.718;21.122;2022-07-01T13:00:16;7.63;;;4.00;;
64498;SDS011;51087;55.718;21.122;2022-07-01T13:02:43;4.82;;;3.90;;
64498;SDS011;51087;55.718;21.122;2022-07-01T13:05:09;4.90;;;3.70;;
64498;SDS011;51087;55.718;21.122;2022-07-01T13:07:35;4.82;;;4.00;;
64498;SDS011;51087;55.718;21.122;2022-07-01T13:10:01;5.18;;;4.13;;
64498;SDS011;51087;55.718;21.122;2022-07-01T13:12:26;5.93;;;3.83;;
64498;SDS011;51087;55.718;21.122;2022-07-01T13:14:52;5.60;;;3.90;;
64498;SDS011;51087;55.718;21.122;2022-07-01T13:17:17;6.35;;;3.70;;
64498;SDS011;51087;55.718;21.122;2022-07-01T13:19:43;5.63;;;4.20;;
64498;SDS011;51087;55.718;21.122;2022-07-01T13:22:08;5.63;;;3.95;;
64498;SDS011;51087;55.718;21.122;2022-07-01T13:24:34;4.72;;;3.85;;
64498;SDS011;51087;55.718;21.122;2022-07-01T13:27:00;4.38;;;3.72;;
64498;SDS011;51087;55.718;21.122;2022-07-01T13:29:26;4.80;;;3.90;;
64498;SDS011;51087;55.718;21.122;2022-07-01T13:31:51;4.85;;;3.95;;
64498;SDS011;51087;55.718;21.122;2022-07-01T13:34:17;4.97;;;3.90;;
64498;SDS011;51087;55.718;21.122;2022-07-01T13:36:42;4.30;;;3.90;;
64498;SDS011;51087;55.718;21.122;2022-07-01T13:39:07;4.90;;;3.97;;
64498;SDS011;51087;55.718;21.122;2022-07-01T13:41:34;5.07;;;3.90;;
64498;SDS011;51087;55.718;21.122;2022-07-01T13:43:59;5.30;;;4.18;;
64498;SDS011;51087;55.718;21.122;2022-07-01T13:46:25;4.20;;;3.78;;
64498;SDS011;51087;55.718;21.122;2022-07-01T13:48:50;4.90;;;4.40;;
64498;SDS011;51087;55.718;21.122;2022-07-01T13:51:15;4.28;;;3.83;;
64498;SDS011;51087;55.718;21.122;2022-07-01T13:53:41;5.80;;;3.90;;
64498;SDS011;51087;55.718;21.122;2022-07-01T13:56:07;4.40;;;4.00;;
64498;SDS011;51087;55.718;21.122;2022-07-01T13:58:32;5.53;;;4.10;;
64498;SDS011;51087;55.718;21.122;2022-07-01T14:00:57;4.90;;;3.83;;
64498;SDS011;51087;55.718;21.122;2022-07-01T14:03:23;4.78;;;4.28;;
64498;SDS011;51087;55.718;21.122;2022-07-01T14:05:48;4.95;;;4.40;;
64498;SDS011;51087;55.718;21.122;2022-07-01T14:08:14;4.32;;;3.92;;
64498;SDS011;51087;55.718;21.122;2022-07-01T14:10:42;4.18;;;3.53;;
64498;SDS011;51087;55.718;21.122;2022-07-01T14:13:09;4.68;;;4.15;;
64498;SDS011;51087;55.718;21.122;2022-07-01T14:15:35;4.72;;;4.22;;
64498;SDS011;51087;55.718;21.122;2022-07-01T14:18:00;4.47;;;4.07;;
64498;SDS011;51087;55.718;21.122;2022-07-01T14:20:26;4.60;;;4.20;;
64498;SDS011;51087;55.718;21.122;2022-07-01T14:22:52;4.35;;;3.95;;
64498;SDS011;51087;55.718;21.122;2022-07-01T14:25:19;5.65;;;4.25;;
64498;SDS011;51087;55.718;21.122;2022-07-01T14:27:45;5.30;;;4.13;;
64498;SDS011;51087;55.718;21.122;2022-07-01T14:30:11;4.88;;;4.30;;
64498;SDS011;51087;55.718;21.122;2022-07-01T14:32:37;5.13;;;4.30;;
64498;SDS011;51087;55.718;21.122;2022-07-01T14:35:04;4.95;;;4.07;;
64498;SDS011;51087;55.718;21.122;2022-07-01T14:37:30;4.28;;;3.83;;
64498;SDS011;51087;55.718;21.122;2022-07-01T14:39:56;4.20;;;3.80;;
64498;SDS011;51087;55.718;21.122;2022-07-01T14:42:22;4.25;;;3.78;;
64498;SDS011;51087;55.718;21.122;2022-07-01T14:44:49;6.03;;;4.07;;
64498;SDS011;51087;55.718;21.122;2022-07-01T14:47:15;4.13;;;3.65;;
64498;SDS011;51087;55.718;21.122;2022-07-01T14:49:41;4.90;;;4.40;;
64498;SDS011;51087;55.718;21.122;2022-07-01T14:52:08;4.63;;;4.18;;
64498;SDS011;51087;55.718;21.122;2022-07-01T14:54:33;4.65;;;3.95;;
64498;SDS011;51087;55.718;21.122;2022-07-01T14:56:59;5.22;;;3.92;;
64498;SDS011;51087;55.718;21.122;2022-07-01T14:59:24;4.80;;;3.97;;
64498;SDS011;51087;55.718;21.122;2022-07-01T15:01:49;4.57;;;3.92;;
64498;SDS011;51087;55.718;21.122;2022-07-01T15:04:16;4.30;;;3.90;;